sensor_id;sensor_type;location;lat;lon;timestamp;P1;durP1;ratioP1;P2;durP2;ratioP2
48935;SDS011;34745;52.276;10.528;2023-02-12T00:00:41;60.47;;;35.13;;
48935;SDS011;34745;52.276;10.528;2023-02-12T00:03:09;61.73;;;34.73;;
48935;SDS011;34745;52.276;10.528;2023-02-12T00:05:38;61.13;;;34.13;;
48935;SDS011;34745;52.276;10.528;2023-02-12T00:08:06;64.63;;;34.80;;
48935;SDS011;34745;52.276;10.528;2023-02-12T00:10:34;63.47;;;34.83;;
48935;SDS011;34745;52.276;10.528;2023-02-12T00:13:05;61.57;;;34.83;;
48935;SDS011;34745;52.276;10.528;2023-02-12T00:15:33;54.47;;;32.90;;
48935;SDS011;34745;52.276;10.528;2023-02-12T00:18:00;54.57;;;33.23;;
48935;SDS011;34745;52.276;10.528;2023-02-12T00:20:27;54.37;;;31.93;;
48935;SDS011;34745;52.276;10.528;2023-02-12T00:22:56;48.17;;;29.77;;
48935;SDS011;34745;52.276;10.528;2023-02-12T00:25:25;49.50;;;31.43;;
48935;SDS011;34745;52.276;10.528;2023-02-12T00:27:52;52.43;;;32.27;;
48935;SDS011;34745;52.276;10.528;2023-02-12T00:30:19;59.10;;;31.57;;
48935;SDS011;34745;52.276;10.528;2023-02-12T00:32:46;50.70;;;30.57;;
48935;SDS011;34745;52.276;10.528;2023-02-12T00:35:13;51.03;;;30.83;;
48935;SDS011;34745;52.276;10.528;2023-02-12T00:37:41;53.23;;;31.30;;
48935;SDS011;34745;52.276;10.528;2023-02-12T00:40:10;49.37;;;31.00;;
48935;SDS011;34745;52.276;10.528;2023-02-12T00:42:38;48.53;;;30.27;;
48935;SDS011;34745;52.276;10.528;2023-02-12T00:45:05;61.50;;;32.00;;
48935;SDS011;34745;52.276;10.528;2023-02-12T00:47:33;54.93;;;32.77;;
48935;SDS011;34745;52.276;10.528;2023-02-12T00:49:59;61.77;;;32.50;;
48935;SDS011;34745;52.276;10.528;2023-02-12T00:52:27;56.30;;;32.73;;
48935;SDS011;34745;52.276;10.528;2023-02-12T00:54:54;56.03;;;31.87;;
48935;SDS011;34745;52.276;10.528;2023-02-12T00:57:22;58.23;;;33.47;;
48935;SDS011;34745;52.276;10.528;2023-02-12T00:59:49;66.13;;;35.03;;
48935;SDS011;34745;52.276;10.528;2023-02-12T01:02:16;65.00;;;34.23;;
48935;SDS011;34745;52.276;10.528;2023-02-12T01:04:43;57.87;;;32.87;;
48935;SDS011;34745;52.276;10.528;2023-02-12T01:07:10;58.00;;;33.37;;
48935;SDS011;34745;52.276;10.528;2023-02-12T01:09:37;57.00;;;32.70;;
48935;SDS011;34745;52.276;10.528;2023-02-12T01:12:04;56.53;;;32.30;;
48935;SDS011;34745;52.276;10.528;2023-02-12T01:14:34;57.37;;;31.57;;
48935;SDS011;34745;52.276;10.528;2023-02-12T01:17:00;61.13;;;32.27;;
48935;SDS011;34745;52.276;10.528;2023-02-12T01:19:27;50.13;;;29.87;;
48935;SDS011;34745;52.276;10.528;2023-02-12T01:21:55;63.23;;;31.43;;
48935;SDS011;34745;52.276;10.528;2023-02-12T01:24:21;60.50;;;31.47;;
48935;SDS011;34745;52.276;10.528;2023-02-12T01:26:49;54.60;;;30.83;;
48935;SDS011;34745;52.276;10.528;2023-02-12T01:29:16;50.63;;;29.47;;
48935;SDS011;34745;52.276;10.528;2023-02-12T01:31:45;59.23;;;29.67;;
48935;SDS011;34745;52.276;10.528;2023-02-12T01:34:12;52.23;;;29.57;;
48935;SDS011;34745;52.276;10.528;2023-02-12T01:36:39;44.53;;;26.60;;
48935;SDS011;34745;52.276;10.528;2023-02-12T01:39:06;49.60;;;26.97;;
48935;SDS011;34745;52.276;10.528;2023-02-12T01:41:34;51.80;;;26.30;;
48935;SDS011;34745;52.276;10.528;2023-02-12T01:44:04;51.33;;;28.10;;
48935;SDS011;34745;52.276;10.528;2023-02-12T01:46:42;48.03;;;28.23;;
48935;SDS011;34745;52.276;10.528;2023-02-12T01:49:13;49.07;;;27.83;;
48935;SDS011;34745;52.276;10.528;2023-02-12T01:51:45;43.57;;;26.73;;
48935;SDS011;34745;52.276;10.528;2023-02-12T01:54:14;48.47;;;28.43;;
48935;SDS011;34745;52.276;10.528;2023-02-12T01:56:43;43.93;;;25.80;;
48935;SDS011;34745;52.276;10.528;2023-02-12T01:59:10;44.53;;;26.20;;
48935;SDS011;34745;52.276;10.528;2023-02-12T02:01:38;42.93;;;25.17;;
48935;SDS011;34745;52.276;10.528;2023-02-12T02:04:09;45.47;;;25.57;;
48935;SDS011;34745;52.276;10.528;2023-02-12T02:06:41;36.87;;;24.63;;
48935;SDS011;34745;52.276;10.528;2023-02-12T02:09:11;39.30;;;24.27;;
48935;SDS011;34745;52.276;10.528;2023-02-12T02:11:39;45.17;;;25.70;;
48935;SDS011;34745;52.276;10.528;2023-02-12T02:14:24;49.83;;;25.80;;
48935;SDS011;34745;52.276;10.528;2023-02-12T02:17:05;41.70;;;25.07;;
48935;SDS011;34745;52.276;10.528;2023-02-12T02:22:58;43.70;;;25.17;;
48935;SDS011;34745;52.276;10.528;2023-02-12T02:25:39;38.20;;;25.13;;
48935;SDS011;34745;52.276;10.528;2023-02-12T02:28:29;41.43;;;26.63;;
48935;SDS011;34745;52.276;10.528;2023-02-12T02:31:10;44.90;;;25.90;;
48935;SDS011;34745;52.276;10.528;2023-02-12T02:33:44;48.03;;;28.07;;
48935;SDS011;34745;52.276;10.528;2023-02-12T02:36:22;43.03;;;27.63;;
48935;SDS011;34745;52.276;10.528;2023-02-12T02:38:54;40.03;;;26.93;;
48935;SDS011;34745;52.276;10.528;2023-02-12T02:41:27;52.87;;;29.10;;
48935;SDS011;34745;52.276;10.528;2023-02-12T02:43:59;49.73;;;28.67;;
48935;SDS011;34745;52.276;10.528;2023-02-12T02:46:35;48.53;;;26.33;;
48935;SDS011;34745;52.276;10.528;2023-02-12T02:49:09;51.90;;;28.27;;
48935;SDS011;34745;52.276;10.528;2023-02-12T02:51:43;49.37;;;28.47;;
48935;SDS011;34745;52.276;10.528;2023-02-12T02:54:14;57.63;;;27.30;;
48935;SDS011;34745;52.276;10.528;2023-02-12T02:56:46;55.47;;;27.53;;
48935;SDS011;34745;52.276;10.528;2023-02-12T02:59:17;52.30;;;27.37;;
48935;SDS011;34745;52.276;10.528;2023-02-12T03:01:49;51.53;;;27.73;;
48935;SDS011;34745;52.276;10.528;2023-02-12T03:04:21;44.47;;;27.07;;
48935;SDS011;34745;52.276;10.528;2023-02-12T03:06:56;48.80;;;26.07;;
48935;SDS011;34745;52.276;10.528;2023-02-12T03:09:27;44.87;;;25.13;;
48935;SDS011;34745;52.276;10.528;2023-02-12T03:12:02;50.80;;;26.13;;
48935;SDS011;34745;52.276;10.528;2023-02-12T03:14:35;46.67;;;25.27;;
48935;SDS011;34745;52.276;10.528;2023-02-12T03:17:08;44.33;;;24.93;;
48935;SDS011;34745;52.276;10.528;2023-02-12T03:19:39;40.93;;;23.63;;
48935;SDS011;34745;52.276;10.528;2023-02-12T03:22:11;47.67;;;23.20;;
48935;SDS011;34745;52.276;10.528;2023-02-12T03:24:43;44.23;;;24.87;;
48935;SDS011;34745;52.276;10.528;2023-02-12T03:27:12;45.97;;;23.93;;
48935;SDS011;34745;52.276;10.528;2023-02-12T03:29:44;45.50;;;24.03;;
48935;SDS011;34745;52.276;10.528;2023-02-12T03:32:20;52.07;;;25.03;;
48935;SDS011;34745;52.276;10.528;2023-02-12T03:34:54;44.07;;;24.60;;
48935;SDS011;34745;52.276;10.528;2023-02-12T03:37:29;43.53;;;25.60;;
48935;SDS011;34745;52.276;10.528;2023-02-12T03:40:00;49.60;;;24.20;;
48935;SDS011;34745;52.276;10.528;2023-02-12T03:42:34;48.43;;;24.90;;
48935;SDS011;34745;52.276;10.528;2023-02-12T03:45:07;47.13;;;25.47;;
48935;SDS011;34745;52.276;10.528;2023-02-12T03:47:42;51.27;;;25.70;;
48935;SDS011;34745;52.276;10.528;2023-02-12T03:50:14;42.10;;;25.23;;
48935;SDS011;34745;52.276;10.528;2023-02-12T03:52:44;46.50;;;25.30;;
48935;SDS011;34745;52.276;10.528;2023-02-12T03:55:12;44.00;;;23.77;;
48935;SDS011;34745;52.276;10.528;2023-02-12T03:57:40;37.20;;;22.97;;
48935;SDS011;34745;52.276;10.528;2023-02-12T04:00:13;44.80;;;24.13;;
48935;SDS011;34745;52.276;10.528;2023-02-12T04:02:44;40.50;;;22.87;;
48935;SDS011;34745;52.276;10.528;2023-02-12T04:05:16;38.90;;;23.80;;
48935;SDS011;34745;52.276;10.528;2023-02-12T04:07:45;43.67;;;24.70;;
48935;SDS011;34745;52.276;10.528;2023-02-12T04:10:13;40.90;;;23.07;;
48935;SDS011;34745;52.276;10.528;2023-02-12T04:12:42;38.63;;;23.40;;
48935;SDS011;34745;52.276;10.528;2023-02-12T04:15:24;43.47;;;22.77;;
48935;SDS011;34745;52.276;10.528;2023-02-12T04:18:03;45.67;;;23.73;;
48935;SDS011;34745;52.276;10.528;2023-02-12T04:20:40;37.70;;;23.87;;
48935;SDS011;34745;52.276;10.528;2023-02-12T04:23:16;33.93;;;21.50;;
48935;SDS011;34745;52.276;10.528;2023-02-12T04:25:58;40.97;;;23.30;;
48935;SDS011;34745;52.276;10.528;2023-02-12T04:28:35;41.83;;;23.67;;
48935;SDS011;34745;52.276;10.528;2023-02-12T04:31:10;46.00;;;23.27;;
48935;SDS011;34745;52.276;10.528;2023-02-12T04:33:48;49.83;;;24.83;;
48935;SDS011;34745;52.276;10.528;2023-02-12T04:36:22;40.00;;;23.43;;
48935;SDS011;34745;52.276;10.528;2023-02-12T04:38:53;44.13;;;24.37;;
48935;SDS011;34745;52.276;10.528;2023-02-12T04:41:24;37.90;;;23.03;;
48935;SDS011;34745;52.276;10.528;2023-02-12T04:43:52;43.90;;;23.33;;
48935;SDS011;34745;52.276;10.528;2023-02-12T04:46:19;53.87;;;24.80;;
48935;SDS011;34745;52.276;10.528;2023-02-12T04:48:50;42.53;;;25.20;;
48935;SDS011;34745;52.276;10.528;2023-02-12T04:51:19;45.80;;;24.80;;
48935;SDS011;34745;52.276;10.528;2023-02-12T04:53:46;46.53;;;24.20;;
48935;SDS011;34745;52.276;10.528;2023-02-12T04:56:14;43.93;;;23.13;;
48935;SDS011;34745;52.276;10.528;2023-02-12T04:58:41;40.90;;;24.83;;
48935;SDS011;34745;52.276;10.528;2023-02-12T05:01:09;43.63;;;24.53;;
48935;SDS011;34745;52.276;10.528;2023-02-12T05:03:36;42.40;;;24.73;;
48935;SDS011;34745;52.276;10.528;2023-02-12T05:06:05;49.87;;;26.27;;
48935;SDS011;34745;52.276;10.528;2023-02-12T05:08:34;43.63;;;24.90;;
48935;SDS011;34745;52.276;10.528;2023-02-12T05:11:04;55.20;;;25.57;;
48935;SDS011;34745;52.276;10.528;2023-02-12T05:13:32;48.03;;;25.43;;
48935;SDS011;34745;52.276;10.528;2023-02-12T05:16:02;47.80;;;25.87;;
48935;SDS011;34745;52.276;10.528;2023-02-12T05:18:29;46.93;;;25.87;;
48935;SDS011;34745;52.276;10.528;2023-02-12T05:20:57;56.03;;;27.63;;
48935;SDS011;34745;52.276;10.528;2023-02-12T05:23:26;48.80;;;26.90;;
48935;SDS011;34745;52.276;10.528;2023-02-12T05:25:56;61.33;;;27.40;;
48935;SDS011;34745;52.276;10.528;2023-02-12T05:28:25;45.37;;;25.60;;
48935;SDS011;34745;52.276;10.528;2023-02-12T05:30:52;55.07;;;26.50;;
48935;SDS011;34745;52.276;10.528;2023-02-12T05:33:20;58.40;;;27.23;;
48935;SDS011;34745;52.276;10.528;2023-02-12T05:35:47;57.00;;;27.53;;
48935;SDS011;34745;52.276;10.528;2023-02-12T05:38:15;62.87;;;26.13;;
48935;SDS011;34745;52.276;10.528;2023-02-12T05:40:43;63.37;;;26.03;;
48935;SDS011;34745;52.276;10.528;2023-02-12T05:43:10;60.60;;;26.23;;
48935;SDS011;34745;52.276;10.528;2023-02-12T05:45:37;65.00;;;27.73;;
48935;SDS011;34745;52.276;10.528;2023-02-12T05:48:06;59.83;;;28.40;;
48935;SDS011;34745;52.276;10.528;2023-02-12T05:50:33;60.70;;;29.40;;
48935;SDS011;34745;52.276;10.528;2023-02-12T05:53:00;60.40;;;28.83;;
48935;SDS011;34745;52.276;10.528;2023-02-12T05:55:28;58.97;;;29.00;;
48935;SDS011;34745;52.276;10.528;2023-02-12T05:57:56;59.37;;;27.77;;
48935;SDS011;34745;52.276;10.528;2023-02-12T06:00:23;52.90;;;27.63;;
48935;SDS011;34745;52.276;10.528;2023-02-12T06:02:50;56.87;;;27.27;;
48935;SDS011;34745;52.276;10.528;2023-02-12T06:05:17;53.13;;;28.33;;
48935;SDS011;34745;52.276;10.528;2023-02-12T06:07:44;57.50;;;27.20;;
48935;SDS011;34745;52.276;10.528;2023-02-12T06:10:12;65.03;;;28.27;;
48935;SDS011;34745;52.276;10.528;2023-02-12T06:12:38;60.40;;;27.30;;
48935;SDS011;34745;52.276;10.528;2023-02-12T06:15:07;62.93;;;28.87;;
48935;SDS011;34745;52.276;10.528;2023-02-12T06:17:34;69.00;;;30.00;;
48935;SDS011;34745;52.276;10.528;2023-02-12T06:20:02;58.50;;;29.40;;
48935;SDS011;34745;52.276;10.528;2023-02-12T06:22:29;59.30;;;27.80;;
48935;SDS011;34745;52.276;10.528;2023-02-12T06:24:57;55.63;;;27.93;;
48935;SDS011;34745;52.276;10.528;2023-02-12T06:27:23;67.63;;;28.80;;
48935;SDS011;34745;52.276;10.528;2023-02-12T06:29:51;48.93;;;26.50;;
48935;SDS011;34745;52.276;10.528;2023-02-12T06:32:19;57.57;;;27.97;;
48935;SDS011;34745;52.276;10.528;2023-02-12T06:34:46;61.30;;;28.90;;
48935;SDS011;34745;52.276;10.528;2023-02-12T06:37:13;53.90;;;28.43;;
48935;SDS011;34745;52.276;10.528;2023-02-12T06:39:40;52.53;;;27.33;;
48935;SDS011;34745;52.276;10.528;2023-02-12T06:42:07;49.50;;;26.63;;
48935;SDS011;34745;52.276;10.528;2023-02-12T06:44:35;53.87;;;26.47;;
48935;SDS011;34745;52.276;10.528;2023-02-12T06:47:01;52.43;;;26.40;;
48935;SDS011;34745;52.276;10.528;2023-02-12T06:49:30;58.73;;;26.57;;
48935;SDS011;34745;52.276;10.528;2023-02-12T06:51:57;57.53;;;26.67;;
48935;SDS011;34745;52.276;10.528;2023-02-12T06:54:28;66.47;;;26.53;;
48935;SDS011;34745;52.276;10.528;2023-02-12T06:56:55;48.63;;;26.90;;
48935;SDS011;34745;52.276;10.528;2023-02-12T06:59:22;56.83;;;26.37;;
48935;SDS011;34745;52.276;10.528;2023-02-12T07:01:49;48.43;;;26.97;;
48935;SDS011;34745;52.276;10.528;2023-02-12T07:04:16;50.47;;;26.40;;
48935;SDS011;34745;52.276;10.528;2023-02-12T07:06:44;57.67;;;27.10;;
48935;SDS011;34745;52.276;10.528;2023-02-12T07:09:12;52.73;;;25.63;;
48935;SDS011;34745;52.276;10.528;2023-02-12T07:11:39;68.60;;;28.77;;
48935;SDS011;34745;52.276;10.528;2023-02-12T07:14:06;56.37;;;27.13;;
48935;SDS011;34745;52.276;10.528;2023-02-12T07:16:33;57.37;;;27.93;;
48935;SDS011;34745;52.276;10.528;2023-02-12T07:19:00;55.50;;;25.70;;
48935;SDS011;34745;52.276;10.528;2023-02-12T07:21:27;60.50;;;26.27;;
48935;SDS011;34745;52.276;10.528;2023-02-12T07:23:56;59.53;;;27.57;;
48935;SDS011;34745;52.276;10.528;2023-02-12T07:26:23;65.97;;;27.77;;
48935;SDS011;34745;52.276;10.528;2023-02-12T07:28:50;67.10;;;27.83;;
48935;SDS011;34745;52.276;10.528;2023-02-12T07:31:17;64.10;;;28.27;;
48935;SDS011;34745;52.276;10.528;2023-02-12T07:33:46;71.97;;;28.13;;
48935;SDS011;34745;52.276;10.528;2023-02-12T07:36:15;67.23;;;29.17;;
48935;SDS011;34745;52.276;10.528;2023-02-12T07:38:43;78.47;;;29.60;;
48935;SDS011;34745;52.276;10.528;2023-02-12T07:41:12;80.90;;;28.77;;
48935;SDS011;34745;52.276;10.528;2023-02-12T07:43:40;73.17;;;28.80;;
48935;SDS011;34745;52.276;10.528;2023-02-12T07:46:09;69.23;;;29.27;;
48935;SDS011;34745;52.276;10.528;2023-02-12T07:48:38;80.40;;;28.33;;
48935;SDS011;34745;52.276;10.528;2023-02-12T07:51:06;65.33;;;30.30;;
48935;SDS011;34745;52.276;10.528;2023-02-12T07:53:34;74.63;;;28.97;;
48935;SDS011;34745;52.276;10.528;2023-02-12T07:56:08;80.57;;;27.83;;
48935;SDS011;34745;52.276;10.528;2023-02-12T07:58:39;75.70;;;28.87;;
48935;SDS011;34745;52.276;10.528;2023-02-12T08:01:11;63.50;;;26.27;;
48935;SDS011;34745;52.276;10.528;2023-02-12T08:03:43;59.33;;;26.07;;
48935;SDS011;34745;52.276;10.528;2023-02-12T08:06:11;61.00;;;26.83;;
48935;SDS011;34745;52.276;10.528;2023-02-12T08:08:39;51.00;;;26.43;;
48935;SDS011;34745;52.276;10.528;2023-02-12T08:11:07;52.30;;;25.80;;
48935;SDS011;34745;52.276;10.528;2023-02-12T08:13:36;54.40;;;24.77;;
48935;SDS011;34745;52.276;10.528;2023-02-12T08:16:06;46.57;;;24.10;;
48935;SDS011;34745;52.276;10.528;2023-02-12T08:18:34;52.60;;;25.27;;
48935;SDS011;34745;52.276;10.528;2023-02-12T08:21:02;41.37;;;23.67;;
48935;SDS011;34745;52.276;10.528;2023-02-12T08:23:29;44.63;;;23.13;;
48935;SDS011;34745;52.276;10.528;2023-02-12T08:26:04;41.13;;;23.40;;
48935;SDS011;34745;52.276;10.528;2023-02-12T08:28:32;43.17;;;24.03;;
48935;SDS011;34745;52.276;10.528;2023-02-12T08:31:02;43.63;;;25.43;;
48935;SDS011;34745;52.276;10.528;2023-02-12T08:33:30;44.67;;;25.47;;
48935;SDS011;34745;52.276;10.528;2023-02-12T08:36:01;48.40;;;25.37;;
48935;SDS011;34745;52.276;10.528;2023-02-12T08:38:29;51.70;;;27.03;;
48935;SDS011;34745;52.276;10.528;2023-02-12T08:40:59;59.73;;;27.20;;
48935;SDS011;34745;52.276;10.528;2023-02-12T08:43:27;53.40;;;25.50;;
48935;SDS011;34745;52.276;10.528;2023-02-12T08:45:59;50.90;;;24.73;;
48935;SDS011;34745;52.276;10.528;2023-02-12T08:48:28;44.57;;;24.03;;
48935;SDS011;34745;52.276;10.528;2023-02-12T08:51:01;45.77;;;24.20;;
48935;SDS011;34745;52.276;10.528;2023-02-12T08:53:30;40.27;;;24.13;;
48935;SDS011;34745;52.276;10.528;2023-02-12T08:55:57;43.03;;;23.07;;
48935;SDS011;34745;52.276;10.528;2023-02-12T08:58:24;41.57;;;22.13;;
48935;SDS011;34745;52.276;10.528;2023-02-12T09:00:51;46.77;;;24.17;;
48935;SDS011;34745;52.276;10.528;2023-02-12T09:03:19;38.90;;;23.13;;
48935;SDS011;34745;52.276;10.528;2023-02-12T09:05:47;39.83;;;21.53;;
48935;SDS011;34745;52.276;10.528;2023-02-12T09:08:14;37.90;;;20.63;;
48935;SDS011;34745;52.276;10.528;2023-02-12T09:10:41;36.37;;;20.47;;
48935;SDS011;34745;52.276;10.528;2023-02-12T09:13:09;35.17;;;19.37;;
48935;SDS011;34745;52.276;10.528;2023-02-12T09:15:37;34.53;;;19.33;;
48935;SDS011;34745;52.276;10.528;2023-02-12T09:18:04;34.40;;;19.33;;
48935;SDS011;34745;52.276;10.528;2023-02-12T09:20:35;38.30;;;21.13;;
48935;SDS011;34745;52.276;10.528;2023-02-12T09:23:03;33.83;;;20.23;;
48935;SDS011;34745;52.276;10.528;2023-02-12T09:25:31;35.37;;;19.90;;
48935;SDS011;34745;52.276;10.528;2023-02-12T09:28:01;36.60;;;19.37;;
48935;SDS011;34745;52.276;10.528;2023-02-12T09:30:28;33.57;;;17.97;;
48935;SDS011;34745;52.276;10.528;2023-02-12T09:32:55;26.43;;;16.67;;
48935;SDS011;34745;52.276;10.528;2023-02-12T09:35:22;24.73;;;15.40;;
48935;SDS011;34745;52.276;10.528;2023-02-12T09:37:52;28.33;;;17.03;;
48935;SDS011;34745;52.276;10.528;2023-02-12T09:40:20;28.77;;;16.07;;
48935;SDS011;34745;52.276;10.528;2023-02-12T09:42:56;26.13;;;16.27;;
48935;SDS011;34745;52.276;10.528;2023-02-12T09:45:32;22.93;;;13.77;;
48935;SDS011;34745;52.276;10.528;2023-02-12T09:48:06;20.23;;;13.43;;
48935;SDS011;34745;52.276;10.528;2023-02-12T09:50:42;22.10;;;13.17;;
48935;SDS011;34745;52.276;10.528;2023-02-12T09:53:16;23.90;;;14.13;;
48935;SDS011;34745;52.276;10.528;2023-02-12T09:55:46;22.20;;;14.33;;
48935;SDS011;34745;52.276;10.528;2023-02-12T09:58:13;23.70;;;13.77;;
48935;SDS011;34745;52.276;10.528;2023-02-12T10:00:43;27.10;;;14.83;;
48935;SDS011;34745;52.276;10.528;2023-02-12T10:03:11;28.23;;;16.30;;
48935;SDS011;34745;52.276;10.528;2023-02-12T10:05:42;27.50;;;16.93;;
48935;SDS011;34745;52.276;10.528;2023-02-12T10:08:25;27.30;;;17.67;;
48935;SDS011;34745;52.276;10.528;2023-02-12T10:11:11;24.13;;;16.53;;
48935;SDS011;34745;52.276;10.528;2023-02-12T10:13:49;22.47;;;15.73;;
48935;SDS011;34745;52.276;10.528;2023-02-12T10:16:32;24.83;;;15.83;;
48935;SDS011;34745;52.276;10.528;2023-02-12T10:19:11;22.17;;;15.50;;
48935;SDS011;34745;52.276;10.528;2023-02-12T10:21:49;22.60;;;15.03;;
48935;SDS011;34745;52.276;10.528;2023-02-12T10:24:38;23.27;;;16.27;;
48935;SDS011;34745;52.276;10.528;2023-02-12T10:27:15;25.93;;;16.37;;
48935;SDS011;34745;52.276;10.528;2023-02-12T10:29:44;24.10;;;15.93;;
48935;SDS011;34745;52.276;10.528;2023-02-12T10:32:15;25.23;;;17.53;;
48935;SDS011;34745;52.276;10.528;2023-02-12T10:34:47;24.73;;;16.90;;
48935;SDS011;34745;52.276;10.528;2023-02-12T10:37:19;24.07;;;15.87;;
48935;SDS011;34745;52.276;10.528;2023-02-12T10:39:55;28.30;;;17.80;;
48935;SDS011;34745;52.276;10.528;2023-02-12T10:42:32;29.57;;;18.47;;
48935;SDS011;34745;52.276;10.528;2023-02-12T10:45:03;28.37;;;18.13;;
48935;SDS011;34745;52.276;10.528;2023-02-12T10:47:31;30.90;;;18.43;;
48935;SDS011;34745;52.276;10.528;2023-02-12T10:49:59;26.13;;;17.17;;
48935;SDS011;34745;52.276;10.528;2023-02-12T10:52:40;26.60;;;17.33;;
48935;SDS011;34745;52.276;10.528;2023-02-12T10:55:23;33.90;;;19.23;;
48935;SDS011;34745;52.276;10.528;2023-02-12T10:57:52;29.20;;;17.27;;
48935;SDS011;34745;52.276;10.528;2023-02-12T11:00:22;29.53;;;18.27;;
48935;SDS011;34745;52.276;10.528;2023-02-12T11:02:59;28.00;;;18.47;;
48935;SDS011;34745;52.276;10.528;2023-02-12T11:05:31;30.93;;;18.77;;
48935;SDS011;34745;52.276;10.528;2023-02-12T11:08:01;28.83;;;18.20;;
48935;SDS011;34745;52.276;10.528;2023-02-12T11:10:32;26.33;;;17.93;;
48935;SDS011;34745;52.276;10.528;2023-02-12T11:13:03;28.03;;;17.87;;
48935;SDS011;34745;52.276;10.528;2023-02-12T11:15:33;28.17;;;18.03;;
48935;SDS011;34745;52.276;10.528;2023-02-12T11:18:04;25.10;;;17.03;;
48935;SDS011;34745;52.276;10.528;2023-02-12T11:20:37;22.53;;;15.60;;
48935;SDS011;34745;52.276;10.528;2023-02-12T11:23:20;28.70;;;17.60;;
48935;SDS011;34745;52.276;10.528;2023-02-12T11:25:55;24.70;;;16.87;;
48935;SDS011;34745;52.276;10.528;2023-02-12T11:28:24;25.80;;;16.43;;
48935;SDS011;34745;52.276;10.528;2023-02-12T11:30:53;27.30;;;18.13;;
48935;SDS011;34745;52.276;10.528;2023-02-12T11:33:23;29.50;;;18.33;;
48935;SDS011;34745;52.276;10.528;2023-02-12T11:35:53;25.30;;;17.50;;
48935;SDS011;34745;52.276;10.528;2023-02-12T11:41:20;25.53;;;17.27;;
48935;SDS011;34745;52.276;10.528;2023-02-12T11:43:51;28.10;;;18.33;;
48935;SDS011;34745;52.276;10.528;2023-02-12T11:46:19;29.67;;;18.23;;
48935;SDS011;34745;52.276;10.528;2023-02-12T11:48:48;32.53;;;17.53;;
48935;SDS011;34745;52.276;10.528;2023-02-12T11:51:17;33.57;;;19.73;;
48935;SDS011;34745;52.276;10.528;2023-02-12T11:53:48;31.87;;;18.77;;
48935;SDS011;34745;52.276;10.528;2023-02-12T11:56:17;32.77;;;18.20;;
48935;SDS011;34745;52.276;10.528;2023-02-12T11:58:46;28.00;;;18.07;;
48935;SDS011;34745;52.276;10.528;2023-02-12T12:01:14;25.90;;;17.67;;
48935;SDS011;34745;52.276;10.528;2023-02-12T12:03:48;31.43;;;16.47;;
48935;SDS011;34745;52.276;10.528;2023-02-12T12:06:24;28.70;;;16.87;;
48935;SDS011;34745;52.276;10.528;2023-02-12T12:08:59;26.63;;;16.20;;
48935;SDS011;34745;52.276;10.528;2023-02-12T12:11:35;24.60;;;16.57;;
48935;SDS011;34745;52.276;10.528;2023-02-12T12:14:12;27.13;;;16.33;;
48935;SDS011;34745;52.276;10.528;2023-02-12T12:16:47;25.60;;;15.93;;
48935;SDS011;34745;52.276;10.528;2023-02-12T12:19:40;23.97;;;15.53;;
48935;SDS011;34745;52.276;10.528;2023-02-12T12:22:25;24.23;;;14.73;;
48935;SDS011;34745;52.276;10.528;2023-02-12T12:25:03;23.07;;;15.53;;
48935;SDS011;34745;52.276;10.528;2023-02-12T12:27:39;28.97;;;14.40;;
48935;SDS011;34745;52.276;10.528;2023-02-12T12:30:32;28.70;;;16.10;;
48935;SDS011;34745;52.276;10.528;2023-02-12T12:33:09;26.03;;;16.50;;
48935;SDS011;34745;52.276;10.528;2023-02-12T12:35:44;25.90;;;16.30;;
48935;SDS011;34745;52.276;10.528;2023-02-12T12:38:22;26.10;;;16.47;;
48935;SDS011;34745;52.276;10.528;2023-02-12T12:40:59;23.53;;;16.00;;
48935;SDS011;34745;52.276;10.528;2023-02-12T12:43:37;27.90;;;15.97;;
48935;SDS011;34745;52.276;10.528;2023-02-12T12:49:22;24.37;;;16.00;;
48935;SDS011;34745;52.276;10.528;2023-02-12T12:52:19;30.40;;;16.80;;
48935;SDS011;34745;52.276;10.528;2023-02-12T12:57:52;32.63;;;17.50;;
48935;SDS011;34745;52.276;10.528;2023-02-12T13:00:39;28.00;;;17.03;;
48935;SDS011;34745;52.276;10.528;2023-02-12T13:03:21;29.97;;;16.97;;
48935;SDS011;34745;52.276;10.528;2023-02-12T13:08:57;33.23;;;18.13;;
48935;SDS011;34745;52.276;10.528;2023-02-12T13:11:38;29.07;;;16.10;;
48935;SDS011;34745;52.276;10.528;2023-02-12T13:14:18;27.20;;;15.97;;
48935;SDS011;34745;52.276;10.528;2023-02-12T13:16:55;31.23;;;17.10;;
48935;SDS011;34745;52.276;10.528;2023-02-12T13:19:30;29.17;;;16.23;;
48935;SDS011;34745;52.276;10.528;2023-02-12T13:22:03;27.80;;;16.27;;
48935;SDS011;34745;52.276;10.528;2023-02-12T13:24:40;29.87;;;16.70;;
48935;SDS011;34745;52.276;10.528;2023-02-12T13:27:11;35.53;;;16.50;;
48935;SDS011;34745;52.276;10.528;2023-02-12T13:29:42;31.13;;;17.33;;
48935;SDS011;34745;52.276;10.528;2023-02-12T13:32:15;29.23;;;16.33;;
48935;SDS011;34745;52.276;10.528;2023-02-12T13:34:49;28.40;;;15.77;;
48935;SDS011;34745;52.276;10.528;2023-02-12T13:37:20;27.70;;;16.17;;
48935;SDS011;34745;52.276;10.528;2023-02-12T13:39:58;26.73;;;15.17;;
48935;SDS011;34745;52.276;10.528;2023-02-12T13:42:35;27.57;;;15.50;;
48935;SDS011;34745;52.276;10.528;2023-02-12T13:45:13;26.03;;;16.33;;
48935;SDS011;34745;52.276;10.528;2023-02-12T13:47:53;28.93;;;18.03;;
48935;SDS011;34745;52.276;10.528;2023-02-12T13:50:35;26.57;;;16.53;;
48935;SDS011;34745;52.276;10.528;2023-02-12T13:53:11;24.30;;;15.83;;
48935;SDS011;34745;52.276;10.528;2023-02-12T13:55:54;27.40;;;15.73;;
48935;SDS011;34745;52.276;10.528;2023-02-12T13:58:45;26.00;;;16.03;;
48935;SDS011;34745;52.276;10.528;2023-02-12T14:04:14;28.73;;;16.73;;
48935;SDS011;34745;52.276;10.528;2023-02-12T14:06:53;25.97;;;16.07;;
48935;SDS011;34745;52.276;10.528;2023-02-12T14:09:28;27.90;;;16.77;;
48935;SDS011;34745;52.276;10.528;2023-02-12T14:11:58;25.67;;;16.40;;
48935;SDS011;34745;52.276;10.528;2023-02-12T14:14:28;26.50;;;16.93;;
48935;SDS011;34745;52.276;10.528;2023-02-12T14:20:05;25.33;;;15.47;;
48935;SDS011;34745;52.276;10.528;2023-02-12T14:25:26;28.87;;;15.73;;
48935;SDS011;34745;52.276;10.528;2023-02-12T14:28:10;24.13;;;15.33;;
48935;SDS011;34745;52.276;10.528;2023-02-12T14:30:46;26.57;;;15.83;;
48935;SDS011;34745;52.276;10.528;2023-02-12T14:37:08;24.13;;;14.90;;
48935;SDS011;34745;52.276;10.528;2023-02-12T14:39:37;20.73;;;13.80;;
48935;SDS011;34745;52.276;10.528;2023-02-12T14:47:58;21.30;;;14.10;;
48935;SDS011;34745;52.276;10.528;2023-02-12T14:50:34;21.60;;;14.10;;
48935;SDS011;34745;52.276;10.528;2023-02-12T14:53:06;24.53;;;15.60;;
48935;SDS011;34745;52.276;10.528;2023-02-12T14:55:48;22.07;;;14.43;;
48935;SDS011;34745;52.276;10.528;2023-02-12T14:58:17;23.27;;;13.93;;
48935;SDS011;34745;52.276;10.528;2023-02-12T15:00:46;20.57;;;12.77;;
48935;SDS011;34745;52.276;10.528;2023-02-12T15:03:18;18.77;;;12.67;;
48935;SDS011;34745;52.276;10.528;2023-02-12T15:05:54;16.07;;;12.40;;